sensor_id;sensor_type;location;lat;lon;timestamp;temperature;humidity
15636;DHT22;7917;50.818;6.972;2023-04-26T00:02:00;4.60;99.90
15636;DHT22;7917;50.818;6.972;2023-04-26T00:04:29;4.50;99.90
15636;DHT22;7917;50.818;6.972;2023-04-26T00:06:56;4.50;99.90
15636;DHT22;7917;50.818;6.972;2023-04-26T00:09:24;4.40;1.00
15636;DHT22;7917;50.818;6.972;2023-04-26T00:11:51;4.30;1.00
15636;DHT22;7917;50.818;6.972;2023-04-26T00:14:21;4.10;1.00
15636;DHT22;7917;50.818;6.972;2023-04-26T00:16:48;4.10;1.00
15636;DHT22;7917;50.818;6.972;2023-04-26T00:19:14;4.10;1.00
15636;DHT22;7917;50.818;6.972;2023-04-26T00:21:42;4.00;1.00
15636;DHT22;7917;50.818;6.972;2023-04-26T00:24:09;4.00;1.00
15636;DHT22;7917;50.818;6.972;2023-04-26T00:26:36;3.90;99.90
15636;DHT22;7917;50.818;6.972;2023-04-26T00:29:05;3.80;1.00
15636;DHT22;7917;50.818;6.972;2023-04-26T00:31:33;3.70;99.90
15636;DHT22;7917;50.818;6.972;2023-04-26T00:33:59;3.70;99.90
15636;DHT22;7917;50.818;6.972;2023-04-26T00:36:26;3.60;99.90
15636;DHT22;7917;50.818;6.972;2023-04-26T00:38:53;3.50;99.90
15636;DHT22;7917;50.818;6.972;2023-04-26T00:41:20;3.40;1.00
15636;DHT22;7917;50.818;6.972;2023-04-26T00:43:48;3.30;1.00
15636;DHT22;7917;50.818;6.972;2023-04-26T00:46:14;3.20;52.60
15636;DHT22;7917;50.818;6.972;2023-04-26T00:48:41;3.20;99.90
15636;DHT22;7917;50.818;6.972;2023-04-26T00:51:08;3.10;99.90
15636;DHT22;7917;50.818;6.972;2023-04-26T00:53:35;3.00;99.90
15636;DHT22;7917;50.818;6.972;2023-04-26T00:56:02;3.00;1.00
15636;DHT22;7917;50.818;6.972;2023-04-26T00:58:29;3.00;1.00
15636;DHT22;7917;50.818;6.972;2023-04-26T01:00:59;2.90;69.60
15636;DHT22;7917;50.818;6.972;2023-04-26T01:03:27;2.90;99.90
15636;DHT22;7917;50.818;6.972;2023-04-26T01:05:53;2.80;99.90
15636;DHT22;7917;50.818;6.972;2023-04-26T01:08:21;2.70;1.00
15636;DHT22;7917;50.818;6.972;2023-04-26T01:10:53;2.70;1.00
15636;DHT22;7917;50.818;6.972;2023-04-26T01:13:20;2.60;14.70
15636;DHT22;7917;50.818;6.972;2023-04-26T01:15:47;2.60;99.90
15636;DHT22;7917;50.818;6.972;2023-04-26T01:18:15;2.60;99.90
15636;DHT22;7917;50.818;6.972;2023-04-26T01:20:42;2.60;1.00
15636;DHT22;7917;50.818;6.972;2023-04-26T01:23:12;2.60;1.00
15636;DHT22;7917;50.818;6.972;2023-04-26T01:25:42;2.70;99.90
15636;DHT22;7917;50.818;6.972;2023-04-26T01:28:08;2.70;99.90
15636;DHT22;7917;50.818;6.972;2023-04-26T01:30:35;2.80;1.00
15636;DHT22;7917;50.818;6.972;2023-04-26T01:33:02;2.70;99.90
15636;DHT22;7917;50.818;6.972;2023-04-26T01:35:31;2.60;99.90
15636;DHT22;7917;50.818;6.972;2023-04-26T01:37:58;2.70;1.00
15636;DHT22;7917;50.818;6.972;2023-04-26T01:40:29;2.60;93.80
15636;DHT22;7917;50.818;6.972;2023-04-26T01:42:56;2.70;1.00
15636;DHT22;7917;50.818;6.972;2023-04-26T01:45:22;2.70;42.00
15636;DHT22;7917;50.818;6.972;2023-04-26T01:47:54;2.60;99.90
15636;DHT22;7917;50.818;6.972;2023-04-26T01:50:21;2.50;1.00
15636;DHT22;7917;50.818;6.972;2023-04-26T01:52:48;2.40;99.90
15636;DHT22;7917;50.818;6.972;2023-04-26T01:55:21;2.40;99.90
15636;DHT22;7917;50.818;6.972;2023-04-26T01:57:48;2.30;99.90
15636;DHT22;7917;50.818;6.972;2023-04-26T02:00:15;2.20;1.00
15636;DHT22;7917;50.818;6.972;2023-04-26T02:02:42;2.20;99.90
15636;DHT22;7917;50.818;6.972;2023-04-26T02:05:10;2.20;1.00
15636;DHT22;7917;50.818;6.972;2023-04-26T02:07:37;2.10;1.00
15636;DHT22;7917;50.818;6.972;2023-04-26T02:10:05;2.10;1.00
15636;DHT22;7917;50.818;6.972;2023-04-26T02:12:31;2.00;86.40
15636;DHT22;7917;50.818;6.972;2023-04-26T02:14:59;2.00;99.90
15636;DHT22;7917;50.818;6.972;2023-04-26T02:17:29;2.00;99.90
15636;DHT22;7917;50.818;6.972;2023-04-26T02:19:55;1.90;99.90
15636;DHT22;7917;50.818;6.972;2023-04-26T02:22:22;1.90;1.00
15636;DHT22;7917;50.818;6.972;2023-04-26T02:24:50;1.80;1.00
15636;DHT22;7917;50.818;6.972;2023-04-26T02:27:17;1.80;1.00
15636;DHT22;7917;50.818;6.972;2023-04-26T02:29:44;1.80;1.00
15636;DHT22;7917;50.818;6.972;2023-04-26T02:32:11;1.70;1.00
15636;DHT22;7917;50.818;6.972;2023-04-26T02:34:38;1.70;29.50
15636;DHT22;7917;50.818;6.972;2023-04-26T02:37:05;1.70;99.90
15636;DHT22;7917;50.818;6.972;2023-04-26T02:42:46;1.70;99.90
15636;DHT22;7917;50.818;6.972;2023-04-26T02:45:13;1.60;99.90
15636;DHT22;7917;50.818;6.972;2023-04-26T02:51:02;1.60;99.90
15636;DHT22;7917;50.818;6.972;2023-04-26T02:53:32;1.50;99.90
15636;DHT22;7917;50.818;6.972;2023-04-26T02:55:59;1.50;99.90
15636;DHT22;7917;50.818;6.972;2023-04-26T03:01:36;1.50;99.90
15636;DHT22;7917;50.818;6.972;2023-04-26T03:04:06;1.50;99.90
15636;DHT22;7917;50.818;6.972;2023-04-26T03:06:34;1.50;99.90
15636;DHT22;7917;50.818;6.972;2023-04-26T03:09:01;1.50;99.90
15636;DHT22;7917;50.818;6.972;2023-04-26T03:11:28;1.50;99.90
15636;DHT22;7917;50.818;6.972;2023-04-26T03:13:54;1.60;99.90
15636;DHT22;7917;50.818;6.972;2023-04-26T03:16:22;1.70;99.90
15636;DHT22;7917;50.818;6.972;2023-04-26T03:18:49;1.80;99.90
15636;DHT22;7917;50.818;6.972;2023-04-26T03:21:16;1.90;99.90
15636;DHT22;7917;50.818;6.972;2023-04-26T03:23:44;1.90;99.90
15636;DHT22;7917;50.818;6.972;2023-04-26T03:26:10;2.00;99.90
15636;DHT22;7917;50.818;6.972;2023-04-26T03:28:37;2.00;99.90
15636;DHT22;7917;50.818;6.972;2023-04-26T03:31:04;2.00;99.90
15636;DHT22;7917;50.818;6.972;2023-04-26T03:33:31;2.00;99.90
15636;DHT22;7917;50.818;6.972;2023-04-26T03:35:58;1.90;99.90
15636;DHT22;7917;50.818;6.972;2023-04-26T03:38:24;1.90;99.90
15636;DHT22;7917;50.818;6.972;2023-04-26T03:40:52;1.90;99.90
15636;DHT22;7917;50.818;6.972;2023-04-26T03:43:18;1.90;99.90
15636;DHT22;7917;50.818;6.972;2023-04-26T03:45:46;1.80;99.90
15636;DHT22;7917;50.818;6.972;2023-04-26T03:48:14;1.70;99.90
15636;DHT22;7917;50.818;6.972;2023-04-26T03:50:41;1.70;99.90
15636;DHT22;7917;50.818;6.972;2023-04-26T03:53:09;1.60;99.90
15636;DHT22;7917;50.818;6.972;2023-04-26T03:55:36;1.60;99.90
15636;DHT22;7917;50.818;6.972;2023-04-26T03:58:04;1.50;99.90
15636;DHT22;7917;50.818;6.972;2023-04-26T04:00:32;1.50;99.90
15636;DHT22;7917;50.818;6.972;2023-04-26T04:02:59;1.50;99.90
15636;DHT22;7917;50.818;6.972;2023-04-26T04:05:26;1.50;99.90
15636;DHT22;7917;50.818;6.972;2023-04-26T04:07:53;1.50;99.90
15636;DHT22;7917;50.818;6.972;2023-04-26T04:10:21;1.40;99.90
15636;DHT22;7917;50.818;6.972;2023-04-26T04:12:48;1.40;99.90
15636;DHT22;7917;50.818;6.972;2023-04-26T04:15:16;1.30;99.90
15636;DHT22;7917;50.818;6.972;2023-04-26T04:17:43;1.30;99.90
15636;DHT22;7917;50.818;6.972;2023-04-26T04:20:11;1.30;99.90
15636;DHT22;7917;50.818;6.972;2023-04-26T04:22:39;1.30;99.90
15636;DHT22;7917;50.818;6.972;2023-04-26T04:25:06;1.30;99.90
15636;DHT22;7917;50.818;6.972;2023-04-26T04:27:34;1.50;99.90
15636;DHT22;7917;50.818;6.972;2023-04-26T04:30:02;1.60;99.90
15636;DHT22;7917;50.818;6.972;2023-04-26T04:32:30;1.70;99.90
15636;DHT22;7917;50.818;6.972;2023-04-26T04:34:58;1.70;99.90
15636;DHT22;7917;50.818;6.972;2023-04-26T04:37:24;1.70;99.90
15636;DHT22;7917;50.818;6.972;2023-04-26T04:39:53;1.70;99.90
15636;DHT22;7917;50.818;6.972;2023-04-26T04:42:20;1.70;99.90
15636;DHT22;7917;50.818;6.972;2023-04-26T04:44:47;1.70;99.90
15636;DHT22;7917;50.818;6.972;2023-04-26T04:47:15;1.70;99.90
15636;DHT22;7917;50.818;6.972;2023-04-26T04:49:43;1.70;99.90
15636;DHT22;7917;50.818;6.972;2023-04-26T04:52:10;1.80;99.90
15636;DHT22;7917;50.818;6.972;2023-04-26T04:54:37;1.80;99.90
15636;DHT22;7917;50.818;6.972;2023-04-26T04:57:04;1.90;99.90
15636;DHT22;7917;50.818;6.972;2023-04-26T04:59:31;1.90;99.90
15636;DHT22;7917;50.818;6.972;2023-04-26T05:01:58;2.00;99.90
15636;DHT22;7917;50.818;6.972;2023-04-26T05:04:24;2.00;99.90
15636;DHT22;7917;50.818;6.972;2023-04-26T05:06:52;2.10;99.90
15636;DHT22;7917;50.818;6.972;2023-04-26T05:09:19;2.20;99.90
15636;DHT22;7917;50.818;6.972;2023-04-26T05:11:46;2.40;99.90
15636;DHT22;7917;50.818;6.972;2023-04-26T05:14:13;2.50;99.90
15636;DHT22;7917;50.818;6.972;2023-04-26T05:16:39;2.70;99.90
15636;DHT22;7917;50.818;6.972;2023-04-26T05:19:06;2.90;99.90
15636;DHT22;7917;50.818;6.972;2023-04-26T05:24:56;3.20;99.90
15636;DHT22;7917;50.818;6.972;2023-04-26T05:27:23;3.30;99.90
15636;DHT22;7917;50.818;6.972;2023-04-26T05:29:50;3.50;99.90
15636;DHT22;7917;50.818;6.972;2023-04-26T05:32:17;3.70;99.90
15636;DHT22;7917;50.818;6.972;2023-04-26T05:34:44;3.80;99.90
15636;DHT22;7917;50.818;6.972;2023-04-26T05:37:11;3.90;99.90
15636;DHT22;7917;50.818;6.972;2023-04-26T05:39:38;4.00;99.90
15636;DHT22;7917;50.818;6.972;2023-04-26T05:42:05;4.00;99.90
15636;DHT22;7917;50.818;6.972;2023-04-26T05:44:32;4.00;99.90
15636;DHT22;7917;50.818;6.972;2023-04-26T05:46:59;4.10;99.90
15636;DHT22;7917;50.818;6.972;2023-04-26T05:49:26;4.30;99.90
15636;DHT22;7917;50.818;6.972;2023-04-26T05:51:53;4.40;99.90
15636;DHT22;7917;50.818;6.972;2023-04-26T05:54:29;4.40;99.90
15636;DHT22;7917;50.818;6.972;2023-04-26T05:56:56;4.50;99.90
15636;DHT22;7917;50.818;6.972;2023-04-26T05:59:23;4.70;39.20
15636;DHT22;7917;50.818;6.972;2023-04-26T06:01:50;4.80;37.00
15636;DHT22;7917;50.818;6.972;2023-04-26T06:04:17;4.90;1.00
15636;DHT22;7917;50.818;6.972;2023-04-26T06:06:44;5.10;1.00
15636;DHT22;7917;50.818;6.972;2023-04-26T06:09:11;5.20;1.00
15636;DHT22;7917;50.818;6.972;2023-04-26T06:11:38;5.30;1.00
15636;DHT22;7917;50.818;6.972;2023-04-26T06:14:04;5.40;1.00
15636;DHT22;7917;50.818;6.972;2023-04-26T06:16:32;5.60;1.00
15636;DHT22;7917;50.818;6.972;2023-04-26T06:18:59;5.80;1.00
15636;DHT22;7917;50.818;6.972;2023-04-26T06:21:26;6.00;1.00
15636;DHT22;7917;50.818;6.972;2023-04-26T06:23:53;6.20;1.00
15636;DHT22;7917;50.818;6.972;2023-04-26T06:26:22;6.20;99.90
15636;DHT22;7917;50.818;6.972;2023-04-26T06:28:49;6.30;1.00
15636;DHT22;7917;50.818;6.972;2023-04-26T06:31:16;6.40;1.00
15636;DHT22;7917;50.818;6.972;2023-04-26T06:33:44;6.40;1.00
15636;DHT22;7917;50.818;6.972;2023-04-26T06:36:11;6.60;99.90
15636;DHT22;7917;50.818;6.972;2023-04-26T06:38:38;7.00;99.90
15636;DHT22;7917;50.818;6.972;2023-04-26T06:41:05;7.10;99.90
15636;DHT22;7917;50.818;6.972;2023-04-26T06:43:39;7.20;1.00
15636;DHT22;7917;50.818;6.972;2023-04-26T06:46:06;7.30;1.00
15636;DHT22;7917;50.818;6.972;2023-04-26T06:48:32;7.40;1.00
15636;DHT22;7917;50.818;6.972;2023-04-26T06:51:05;7.50;1.00
15636;DHT22;7917;50.818;6.972;2023-04-26T06:53:32;7.70;1.00
15636;DHT22;7917;50.818;6.972;2023-04-26T06:56:01;7.80;1.00
15636;DHT22;7917;50.818;6.972;2023-04-26T06:58:28;7.80;1.00
15636;DHT22;7917;50.818;6.972;2023-04-26T07:00:55;7.70;1.00
15636;DHT22;7917;50.818;6.972;2023-04-26T07:03:21;7.90;1.00
15636;DHT22;7917;50.818;6.972;2023-04-26T07:05:57;7.90;1.00
15636;DHT22;7917;50.818;6.972;2023-04-26T07:08:26;8.10;1.00
15636;DHT22;7917;50.818;6.972;2023-04-26T07:10:53;8.20;1.00
15636;DHT22;7917;50.818;6.972;2023-04-26T07:13:21;8.50;99.90
15636;DHT22;7917;50.818;6.972;2023-04-26T07:15:48;8.50;99.90
15636;DHT22;7917;50.818;6.972;2023-04-26T07:18:15;8.50;99.90
15636;DHT22;7917;50.818;6.972;2023-04-26T07:20:41;8.50;99.90
15636;DHT22;7917;50.818;6.972;2023-04-26T07:23:08;8.40;99.90
15636;DHT22;7917;50.818;6.972;2023-04-26T07:25:36;8.50;99.90
15636;DHT22;7917;50.818;6.972;2023-04-26T07:28:03;8.30;99.90
15636;DHT22;7917;50.818;6.972;2023-04-26T07:30:30;8.30;99.90
15636;DHT22;7917;50.818;6.972;2023-04-26T07:32:57;8.50;99.90
15636;DHT22;7917;50.818;6.972;2023-04-26T07:35:24;8.40;99.90
15636;DHT22;7917;50.818;6.972;2023-04-26T07:37:51;8.50;99.90
15636;DHT22;7917;50.818;6.972;2023-04-26T07:40:18;8.50;99.90
15636;DHT22;7917;50.818;6.972;2023-04-26T07:42:56;8.50;99.90
15636;DHT22;7917;50.818;6.972;2023-04-26T07:45:23;8.40;99.90
15636;DHT22;7917;50.818;6.972;2023-04-26T07:47:53;8.50;99.90
15636;DHT22;7917;50.818;6.972;2023-04-26T07:50:19;8.60;99.90
15636;DHT22;7917;50.818;6.972;2023-04-26T07:52:46;8.80;99.90
15636;DHT22;7917;50.818;6.972;2023-04-26T07:55:13;9.10;99.90
15636;DHT22;7917;50.818;6.972;2023-04-26T07:57:40;9.40;99.90
15636;DHT22;7917;50.818;6.972;2023-04-26T08:00:10;9.40;99.90
15636;DHT22;7917;50.818;6.972;2023-04-26T08:02:37;9.20;99.90
15636;DHT22;7917;50.818;6.972;2023-04-26T08:05:04;9.00;99.90
15636;DHT22;7917;50.818;6.972;2023-04-26T08:07:31;8.90;99.90
15636;DHT22;7917;50.818;6.972;2023-04-26T08:09:58;8.90;99.90
15636;DHT22;7917;50.818;6.972;2023-04-26T08:12:28;9.00;99.90
15636;DHT22;7917;50.818;6.972;2023-04-26T08:14:55;9.20;99.90
15636;DHT22;7917;50.818;6.972;2023-04-26T08:17:22;9.30;99.90
15636;DHT22;7917;50.818;6.972;2023-04-26T08:19:49;9.20;99.90
15636;DHT22;7917;50.818;6.972;2023-04-26T08:22:16;9.20;99.90
15636;DHT22;7917;50.818;6.972;2023-04-26T08:24:46;9.40;99.90
15636;DHT22;7917;50.818;6.972;2023-04-26T08:27:13;9.60;99.90
15636;DHT22;7917;50.818;6.972;2023-04-26T08:32:39;9.90;99.90
15636;DHT22;7917;50.818;6.972;2023-04-26T08:35:06;9.80;99.90
15636;DHT22;7917;50.818;6.972;2023-04-26T08:37:34;10.00;99.90
15636;DHT22;7917;50.818;6.972;2023-04-26T08:40:01;10.00;99.90
15636;DHT22;7917;50.818;6.972;2023-04-26T08:42:29;10.30;99.90
15636;DHT22;7917;50.818;6.972;2023-04-26T08:45:00;10.50;99.90
15636;DHT22;7917;50.818;6.972;2023-04-26T08:47:28;11.00;99.90
15636;DHT22;7917;50.818;6.972;2023-04-26T08:50:02;11.20;99.90
15636;DHT22;7917;50.818;6.972;2023-04-26T08:52:30;11.10;99.90
15636;DHT22;7917;50.818;6.972;2023-04-26T08:54:58;11.00;99.90
15636;DHT22;7917;50.818;6.972;2023-04-26T08:57:26;10.60;99.90
15636;DHT22;7917;50.818;6.972;2023-04-26T08:59:55;10.50;99.90
15636;DHT22;7917;50.818;6.972;2023-04-26T09:02:23;10.70;99.90
15636;DHT22;7917;50.818;6.972;2023-04-26T09:04:50;10.80;99.90
15636;DHT22;7917;50.818;6.972;2023-04-26T09:07:21;10.90;99.90
15636;DHT22;7917;50.818;6.972;2023-04-26T09:09:49;10.90;99.90
15636;DHT22;7917;50.818;6.972;2023-04-26T09:12:17;10.70;99.90
15636;DHT22;7917;50.818;6.972;2023-04-26T09:14:45;10.20;99.90
15636;DHT22;7917;50.818;6.972;2023-04-26T09:17:26;10.20;99.90
15636;DHT22;7917;50.818;6.972;2023-04-26T09:19:53;10.50;99.90
15636;DHT22;7917;50.818;6.972;2023-04-26T09:22:31;10.60;99.90
15636;DHT22;7917;50.818;6.972;2023-04-26T09:24:59;10.70;99.90
15636;DHT22;7917;50.818;6.972;2023-04-26T09:27:33;10.70;99.90
15636;DHT22;7917;50.818;6.972;2023-04-26T09:30:04;11.20;99.90
15636;DHT22;7917;50.818;6.972;2023-04-26T09:32:45;11.50;99.90
15636;DHT22;7917;50.818;6.972;2023-04-26T09:35:25;11.50;99.90
15636;DHT22;7917;50.818;6.972;2023-04-26T09:37:56;11.50;99.90
15636;DHT22;7917;50.818;6.972;2023-04-26T09:40:27;11.40;99.90
15636;DHT22;7917;50.818;6.972;2023-04-26T09:43:01;11.10;99.90
15636;DHT22;7917;50.818;6.972;2023-04-26T09:45:31;11.00;99.90
15636;DHT22;7917;50.818;6.972;2023-04-26T09:48:18;10.90;99.90
15636;DHT22;7917;50.818;6.972;2023-04-26T09:50:47;10.80;99.90
15636;DHT22;7917;50.818;6.972;2023-04-26T09:53:26;10.70;99.90
15636;DHT22;7917;50.818;6.972;2023-04-26T09:55:55;10.70;99.90
15636;DHT22;7917;50.818;6.972;2023-04-26T09:58:25;11.10;99.90
15636;DHT22;7917;50.818;6.972;2023-04-26T10:00:53;10.80;99.90
15636;DHT22;7917;50.818;6.972;2023-04-26T10:03:22;10.80;99.90
15636;DHT22;7917;50.818;6.972;2023-04-26T10:05:49;10.70;99.90
15636;DHT22;7917;50.818;6.972;2023-04-26T10:08:18;10.80;99.90
15636;DHT22;7917;50.818;6.972;2023-04-26T10:10:47;11.20;99.90
15636;DHT22;7917;50.818;6.972;2023-04-26T10:13:15;11.60;99.90
15636;DHT22;7917;50.818;6.972;2023-04-26T10:15:42;12.10;99.90
15636;DHT22;7917;50.818;6.972;2023-04-26T10:18:09;12.30;99.90
15636;DHT22;7917;50.818;6.972;2023-04-26T10:20:39;12.80;99.90
15636;DHT22;7917;50.818;6.972;2023-04-26T10:23:15;12.80;99.90
15636;DHT22;7917;50.818;6.972;2023-04-26T10:25:46;12.10;99.90
15636;DHT22;7917;50.818;6.972;2023-04-26T10:28:13;11.70;99.90
15636;DHT22;7917;50.818;6.972;2023-04-26T10:30:56;12.10;99.90
15636;DHT22;7917;50.818;6.972;2023-04-26T10:33:23;12.60;99.90
15636;DHT22;7917;50.818;6.972;2023-04-26T10:36:08;12.90;99.90
15636;DHT22;7917;50.818;6.972;2023-04-26T10:38:38;12.90;99.90
15636;DHT22;7917;50.818;6.972;2023-04-26T10:41:35;12.30;99.90
15636;DHT22;7917;50.818;6.972;2023-04-26T10:44:39;12.70;99.90
15636;DHT22;7917;50.818;6.972;2023-04-26T10:47:09;13.00;99.90
15636;DHT22;7917;50.818;6.972;2023-04-26T10:49:46;13.20;99.90
15636;DHT22;7917;50.818;6.972;2023-04-26T10:52:14;12.80;99.90
15636;DHT22;7917;50.818;6.972;2023-04-26T10:54:52;12.50;99.90
15636;DHT22;7917;50.818;6.972;2023-04-26T10:57:21;12.20;99.90
15636;DHT22;7917;50.818;6.972;2023-04-26T11:00:16;12.70;99.90
15636;DHT22;7917;50.818;6.972;2023-04-26T11:03:12;13.20;99.90
15636;DHT22;7917;50.818;6.972;2023-04-26T11:05:53;13.50;99.90
15636;DHT22;7917;50.818;6.972;2023-04-26T11:08:24;14.00;99.90
15636;DHT22;7917;50.818;6.972;2023-04-26T11:11:09;13.60;99.90
15636;DHT22;7917;50.818;6.972;2023-04-26T11:13:38;13.30;99.90
15636;DHT22;7917;50.818;6.972;2023-04-26T11:16:06;12.90;99.90
15636;DHT22;7917;50.818;6.972;2023-04-26T11:18:34;13.30;99.90
15636;DHT22;7917;50.818;6.972;2023-04-26T11:21:02;13.60;99.90
15636;DHT22;7917;50.818;6.972;2023-04-26T11:23:30;14.20;99.90
15636;DHT22;7917;50.818;6.972;2023-04-26T11:25:58;14.60;99.90
15636;DHT22;7917;50.818;6.972;2023-04-26T11:28:27;14.10;99.90
15636;DHT22;7917;50.818;6.972;2023-04-26T11:30:55;13.70;99.90
15636;DHT22;7917;50.818;6.972;2023-04-26T11:33:22;14.50;99.90
15636;DHT22;7917;50.818;6.972;2023-04-26T11:35:49;14.70;99.90
15636;DHT22;7917;50.818;6.972;2023-04-26T11:38:17;14.90;99.90
15636;DHT22;7917;50.818;6.972;2023-04-26T11:40:44;15.00;99.90
15636;DHT22;7917;50.818;6.972;2023-04-26T11:43:39;15.20;99.90
15636;DHT22;7917;50.818;6.972;2023-04-26T11:46:08;15.40;99.90
15636;DHT22;7917;50.818;6.972;2023-04-26T11:48:36;15.30;99.90
15636;DHT22;7917;50.818;6.972;2023-04-26T11:51:04;15.20;99.90
15636;DHT22;7917;50.818;6.972;2023-04-26T11:53:35;15.50;99.90
15636;DHT22;7917;50.818;6.972;2023-04-26T11:56:04;15.00;99.90
15636;DHT22;7917;50.818;6.972;2023-04-26T11:58:31;14.90;99.90
15636;DHT22;7917;50.818;6.972;2023-04-26T12:00:59;14.70;99.90
15636;DHT22;7917;50.818;6.972;2023-04-26T12:03:31;14.30;99.90
15636;DHT22;7917;50.818;6.972;2023-04-26T12:06:00;14.60;99.90
15636;DHT22;7917;50.818;6.972;2023-04-26T12:08:27;15.00;99.90
15636;DHT22;7917;50.818;6.972;2023-04-26T12:10:58;14.90;99.90
15636;DHT22;7917;50.818;6.972;2023-04-26T12:13:26;15.00;99.90
15636;DHT22;7917;50.818;6.972;2023-04-26T12:15:53;15.40;99.90
15636;DHT22;7917;50.818;6.972;2023-04-26T12:18:20;15.20;99.90
15636;DHT22;7917;50.818;6.972;2023-04-26T12:20:49;15.10;99.90
15636;DHT22;7917;50.818;6.972;2023-04-26T12:23:23;15.20;99.90
15636;DHT22;7917;50.818;6.972;2023-04-26T12:25:54;14.70;99.90
15636;DHT22;7917;50.818;6.972;2023-04-26T12:28:21;14.10;99.90
15636;DHT22;7917;50.818;6.972;2023-04-26T12:30:49;13.90;99.90
15636;DHT22;7917;50.818;6.972;2023-04-26T12:33:17;13.60;99.90
15636;DHT22;7917;50.818;6.972;2023-04-26T12:35:49;13.50;99.90
15636;DHT22;7917;50.818;6.972;2023-04-26T12:38:16;13.80;99.90
15636;DHT22;7917;50.818;6.972;2023-04-26T12:40:43;13.90;99.90
15636;DHT22;7917;50.818;6.972;2023-04-26T12:43:10;13.90;99.90
15636;DHT22;7917;50.818;6.972;2023-04-26T12:45:37;14.00;99.90
15636;DHT22;7917;50.818;6.972;2023-04-26T12:48:04;14.30;99.90
15636;DHT22;7917;50.818;6.972;2023-04-26T12:50:31;14.70;99.90
15636;DHT22;7917;50.818;6.972;2023-04-26T12:52:59;14.70;99.90
15636;DHT22;7917;50.818;6.972;2023-04-26T12:55:26;14.70;99.90
15636;DHT22;7917;50.818;6.972;2023-04-26T12:57:53;14.80;99.90
15636;DHT22;7917;50.818;6.972;2023-04-26T13:00:20;15.10;99.90
15636;DHT22;7917;50.818;6.972;2023-04-26T13:02:57;14.90;99.90
15636;DHT22;7917;50.818;6.972;2023-04-26T13:05:24;14.80;99.90
15636;DHT22;7917;50.818;6.972;2023-04-26T13:07:50;14.70;99.90
15636;DHT22;7917;50.818;6.972;2023-04-26T13:10:18;14.80;99.90
15636;DHT22;7917;50.818;6.972;2023-04-26T13:12:45;14.40;99.90
15636;DHT22;7917;50.818;6.972;2023-04-26T13:15:12;14.60;99.90
15636;DHT22;7917;50.818;6.972;2023-04-26T13:17:39;14.70;99.90
15636;DHT22;7917;50.818;6.972;2023-04-26T13:20:08;14.60;99.90
15636;DHT22;7917;50.818;6.972;2023-04-26T13:22:35;14.50;99.90
15636;DHT22;7917;50.818;6.972;2023-04-26T13:25:07;14.50;99.90
15636;DHT22;7917;50.818;6.972;2023-04-26T13:27:35;14.40;99.90
15636;DHT22;7917;50.818;6.972;2023-04-26T13:30:02;14.50;99.90
15636;DHT22;7917;50.818;6.972;2023-04-26T13:32:29;14.80;99.90
15636;DHT22;7917;50.818;6.972;2023-04-26T13:34:56;14.70;99.90
15636;DHT22;7917;50.818;6.972;2023-04-26T13:37:23;14.60;99.90
15636;DHT22;7917;50.818;6.972;2023-04-26T13:39:51;14.60;99.90
15636;DHT22;7917;50.818;6.972;2023-04-26T13:42:19;14.60;99.90
15636;DHT22;7917;50.818;6.972;2023-04-26T13:44:47;14.70;99.90
15636;DHT22;7917;50.818;6.972;2023-04-26T13:47:13;14.70;99.90
15636;DHT22;7917;50.818;6.972;2023-04-26T13:49:40;14.80;99.90
15636;DHT22;7917;50.818;6.972;2023-04-26T13:52:09;14.70;99.90
15636;DHT22;7917;50.818;6.972;2023-04-26T13:54:36;14.90;99.90
15636;DHT22;7917;50.818;6.972;2023-04-26T13:57:05;14.80;99.90
15636;DHT22;7917;50.818;6.972;2023-04-26T13:59:31;15.00;99.90
15636;DHT22;7917;50.818;6.972;2023-04-26T14:01:59;14.80;99.90
15636;DHT22;7917;50.818;6.972;2023-04-26T14:04:26;15.00;99.90
15636;DHT22;7917;50.818;6.972;2023-04-26T14:06:53;15.00;99.90
15636;DHT22;7917;50.818;6.972;2023-04-26T14:09:21;14.90;99.90
15636;DHT22;7917;50.818;6.972;2023-04-26T14:11:48;14.80;99.90
15636;DHT22;7917;50.818;6.972;2023-04-26T14:14:15;15.10;99.90
15636;DHT22;7917;50.818;6.972;2023-04-26T14:16:42;15.30;99.90
15636;DHT22;7917;50.818;6.972;2023-04-26T14:19:09;15.10;99.90
15636;DHT22;7917;50.818;6.972;2023-04-26T14:21:37;14.90;99.90
15636;DHT22;7917;50.818;6.972;2023-04-26T14:24:04;14.80;99.90
15636;DHT22;7917;50.818;6.972;2023-04-26T14:26:31;14.70;99.90
15636;DHT22;7917;50.818;6.972;2023-04-26T14:28:59;14.70;99.90
15636;DHT22;7917;50.818;6.972;2023-04-26T14:31:26;14.60;99.90
15636;DHT22;7917;50.818;6.972;2023-04-26T14:33:55;14.80;99.90
15636;DHT22;7917;50.818;6.972;2023-04-26T14:36:22;15.00;99.90
15636;DHT22;7917;50.818;6.972;2023-04-26T14:38:49;15.50;99.90
15636;DHT22;7917;50.818;6.972;2023-04-26T14:41:17;15.80;99.90
15636;DHT22;7917;50.818;6.972;2023-04-26T14:43:45;16.30;99.90
15636;DHT22;7917;50.818;6.972;2023-04-26T14:46:13;16.20;99.90
15636;DHT22;7917;50.818;6.972;2023-04-26T14:48:40;15.90;99.90
15636;DHT22;7917;50.818;6.972;2023-04-26T14:51:08;14.90;99.90
15636;DHT22;7917;50.818;6.972;2023-04-26T14:53:36;14.40;99.90
15636;DHT22;7917;50.818;6.972;2023-04-26T14:56:04;14.50;99.90
15636;DHT22;7917;50.818;6.972;2023-04-26T14:58:32;15.20;99.90
15636;DHT22;7917;50.818;6.972;2023-04-26T15:00:59;14.80;99.90
15636;DHT22;7917;50.818;6.972;2023-04-26T15:03:27;14.80;99.90
15636;DHT22;7917;50.818;6.972;2023-04-26T15:05:54;14.70;99.90
15636;DHT22;7917;50.818;6.972;2023-04-26T15:08:21;14.90;99.90
15636;DHT22;7917;50.818;6.972;2023-04-26T15:10:49;15.70;99.90
15636;DHT22;7917;50.818;6.972;2023-04-26T15:13:17;16.30;99.90
15636;DHT22;7917;50.818;6.972;2023-04-26T15:15:43;16.40;99.90
15636;DHT22;7917;50.818;6.972;2023-04-26T15:21:35;16.50;99.90
15636;DHT22;7917;50.818;6.972;2023-04-26T15:33:26;14.70;99.90
15636;DHT22;7917;50.818;6.972;2023-04-26T15:35:55;14.70;99.90
15636;DHT22;7917;50.818;6.972;2023-04-26T15:38:22;14.50;99.90
15636;DHT22;7917;50.818;6.972;2023-04-26T15:40:49;14.20;99.90
15636;DHT22;7917;50.818;6.972;2023-04-26T15:43:16;13.90;99.90
15636;DHT22;7917;50.818;6.972;2023-04-26T15:45:43;13.70;99.90
15636;DHT22;7917;50.818;6.972;2023-04-26T15:48:13;13.40;99.90
15636;DHT22;7917;50.818;6.972;2023-04-26T15:50:41;13.40;99.90
15636;DHT22;7917;50.818;6.972;2023-04-26T15:53:08;13.10;99.90
15636;DHT22;7917;50.818;6.972;2023-04-26T15:55:35;13.00;99.90
15636;DHT22;7917;50.818;6.972;2023-04-26T15:58:02;13.00;99.90
15636;DHT22;7917;50.818;6.972;2023-04-26T16:00:29;12.90;99.90
15636;DHT22;7917;50.818;6.972;2023-04-26T16:02:57;12.90;99.90
15636;DHT22;7917;50.818;6.972;2023-04-26T16:05:24;13.20;99.90
15636;DHT22;7917;50.818;6.972;2023-04-26T16:07:51;14.00;99.90
15636;DHT22;7917;50.818;6.972;2023-04-26T16:10:20;14.40;99.90
15636;DHT22;7917;50.818;6.972;2023-04-26T16:12:47;15.00;99.90
15636;DHT22;7917;50.818;6.972;2023-04-26T16:15:14;15.70;99.90
15636;DHT22;7917;50.818;6.972;2023-04-26T16:17:41;16.50;99.90
15636;DHT22;7917;50.818;6.972;2023-04-26T16:20:09;16.90;99.90
15636;DHT22;7917;50.818;6.972;2023-04-26T16:22:37;17.30;97.20
15636;DHT22;7917;50.818;6.972;2023-04-26T16:25:04;17.60;95.40
15636;DHT22;7917;50.818;6.972;2023-04-26T16:27:32;17.60;94.70
15636;DHT22;7917;50.818;6.972;2023-04-26T16:29:59;17.10;96.30
15636;DHT22;7917;50.818;6.972;2023-04-26T16:32:27;17.10;96.10
15636;DHT22;7917;50.818;6.972;2023-04-26T16:34:55;17.00;96.30